sensor_id;sensor_type;location;lat;lon;timestamp;pressure;altitude;pressure_sealevel;temperature;humidity
59787;BME280;45672;51.612;5.536;2023-04-06T00:00:38;101625.72;;;4.85;61.35
59787;BME280;45672;51.612;5.536;2023-04-06T00:03:04;101624.22;;;4.81;60.94
59787;BME280;45672;51.612;5.536;2023-04-06T00:05:29;101616.44;;;4.79;61.75
59787;BME280;45672;51.612;5.536;2023-04-06T00:07:57;101614.81;;;4.77;59.33
59787;BME280;45672;51.612;5.536;2023-04-06T00:10:22;101621.03;;;4.76;60.53
59787;BME280;45672;51.612;5.536;2023-04-06T00:12:48;101612.50;;;4.72;61.01
59787;BME280;45672;51.612;5.536;2023-04-06T00:15:13;101610.06;;;4.69;61.02
59787;BME280;45672;51.612;5.536;2023-04-06T00:17:38;101616.16;;;4.70;61.79
59787;BME280;45672;51.612;5.536;2023-04-06T00:20:04;101615.41;;;4.68;60.14
59787;BME280;45672;51.612;5.536;2023-04-06T00:22:29;101612.13;;;4.64;60.49
59787;BME280;45672;51.612;5.536;2023-04-06T00:24:55;101609.88;;;4.58;61.37
59787;BME280;45672;51.612;5.536;2023-04-06T00:27:20;101609.88;;;4.58;61.46
59787;BME280;45672;51.612;5.536;2023-04-06T00:29:45;101610.00;;;4.56;61.34
59787;BME280;45672;51.612;5.536;2023-04-06T00:32:11;101604.88;;;4.53;62.56
59787;BME280;45672;51.612;5.536;2023-04-06T00:34:36;101602.44;;;4.50;63.20
59787;BME280;45672;51.612;5.536;2023-04-06T00:37:01;101595.69;;;4.46;63.25
59787;BME280;45672;51.612;5.536;2023-04-06T00:39:26;101589.66;;;4.44;62.38
59787;BME280;45672;51.612;5.536;2023-04-06T00:41:52;101585.03;;;4.47;62.68
59787;BME280;45672;51.612;5.536;2023-04-06T00:44:19;101591.28;;;4.46;62.53
59787;BME280;45672;51.612;5.536;2023-04-06T00:46:45;101591.44;;;4.43;62.72
59787;BME280;45672;51.612;5.536;2023-04-06T00:49:10;101590.59;;;4.43;64.49
59787;BME280;45672;51.612;5.536;2023-04-06T00:51:35;101575.19;;;4.37;63.25
59787;BME280;45672;51.612;5.536;2023-04-06T00:54:01;101583.94;;;4.37;62.37
59787;BME280;45672;51.612;5.536;2023-04-06T00:56:26;101583.09;;;4.37;63.17
59787;BME280;45672;51.612;5.536;2023-04-06T00:58:52;101575.38;;;4.34;63.24
59787;BME280;45672;51.612;5.536;2023-04-06T01:01:17;101572.19;;;4.28;63.41
59787;BME280;45672;51.612;5.536;2023-04-06T01:03:42;101566.91;;;4.28;61.88
59787;BME280;45672;51.612;5.536;2023-04-06T01:06:09;101559.94;;;4.27;61.89
59787;BME280;45672;51.612;5.536;2023-04-06T01:08:35;101565.59;;;4.36;67.77
59787;BME280;45672;51.612;5.536;2023-04-06T01:11:01;101558.41;;;4.38;65.62
59787;BME280;45672;51.612;5.536;2023-04-06T01:13:26;101557.38;;;4.40;62.84
59787;BME280;45672;51.612;5.536;2023-04-06T01:15:52;101552.00;;;4.42;62.21
59787;BME280;45672;51.612;5.536;2023-04-06T01:18:18;101558.06;;;4.44;61.70
59787;BME280;45672;51.612;5.536;2023-04-06T01:20:43;101552.00;;;4.42;64.93
59787;BME280;45672;51.612;5.536;2023-04-06T01:23:08;101552.97;;;4.41;67.12
59787;BME280;45672;51.612;5.536;2023-04-06T01:25:34;101554.94;;;4.37;65.17
59787;BME280;45672;51.612;5.536;2023-04-06T01:27:59;101547.16;;;4.36;66.72
59787;BME280;45672;51.612;5.536;2023-04-06T01:30:25;101541.16;;;4.34;66.03
59787;BME280;45672;51.612;5.536;2023-04-06T01:32:50;101549.78;;;4.36;65.68
59787;BME280;45672;51.612;5.536;2023-04-06T01:35:17;101543.78;;;4.34;66.05
59787;BME280;45672;51.612;5.536;2023-04-06T01:37:42;101542.81;;;4.35;64.61
59787;BME280;45672;51.612;5.536;2023-04-06T01:40:08;101533.13;;;4.35;64.33
59787;BME280;45672;51.612;5.536;2023-04-06T01:42:34;101528.69;;;4.36;64.11
59787;BME280;45672;51.612;5.536;2023-04-06T01:44:59;101523.34;;;4.37;65.81
59787;BME280;45672;51.612;5.536;2023-04-06T01:47:25;101516.25;;;4.38;65.55
59787;BME280;45672;51.612;5.536;2023-04-06T01:49:51;101528.19;;;4.43;64.48
59787;BME280;45672;51.612;5.536;2023-04-06T01:52:16;101521.91;;;4.46;65.28
59787;BME280;45672;51.612;5.536;2023-04-06T01:54:41;101529.59;;;4.49;66.70
59787;BME280;45672;51.612;5.536;2023-04-06T01:57:07;101518.88;;;4.52;67.02
59787;BME280;45672;51.612;5.536;2023-04-06T01:59:32;101518.69;;;4.55;65.69
59787;BME280;45672;51.612;5.536;2023-04-06T02:01:57;101520.06;;;4.61;65.52
59787;BME280;45672;51.612;5.536;2023-04-06T02:04:22;101517.44;;;4.61;65.87
59787;BME280;45672;51.612;5.536;2023-04-06T02:06:48;101512.06;;;4.62;67.25
59787;BME280;45672;51.612;5.536;2023-04-06T02:09:14;101507.72;;;4.61;65.90
59787;BME280;45672;51.612;5.536;2023-04-06T02:11:39;101504.63;;;4.69;65.56
59787;BME280;45672;51.612;5.536;2023-04-06T02:14:04;101505.13;;;4.74;65.84
59787;BME280;45672;51.612;5.536;2023-04-06T02:16:30;101490.09;;;4.76;64.02
59787;BME280;45672;51.612;5.536;2023-04-06T02:18:55;101493.44;;;4.78;63.78
59787;BME280;45672;51.612;5.536;2023-04-06T02:21:21;101493.25;;;4.81;62.56
59787;BME280;45672;51.612;5.536;2023-04-06T02:23:46;101494.84;;;4.84;62.90
59787;BME280;45672;51.612;5.536;2023-04-06T02:26:13;101492.19;;;4.84;63.09
59787;BME280;45672;51.612;5.536;2023-04-06T02:28:38;101480.59;;;4.87;62.41
59787;BME280;45672;51.612;5.536;2023-04-06T02:31:03;101476.38;;;4.84;62.36
59787;BME280;45672;51.612;5.536;2023-04-06T02:33:29;101490.00;;;4.91;61.44
59787;BME280;45672;51.612;5.536;2023-04-06T02:35:54;101480.50;;;4.88;63.14
59787;BME280;45672;51.612;5.536;2023-04-06T02:38:19;101480.41;;;4.90;63.14
59787;BME280;45672;51.612;5.536;2023-04-06T02:40:44;101476.72;;;4.92;61.67
59787;BME280;45672;51.612;5.536;2023-04-06T02:43:10;101468.91;;;4.91;61.86
59787;BME280;45672;51.612;5.536;2023-04-06T02:45:35;101472.94;;;4.96;64.55
59787;BME280;45672;51.612;5.536;2023-04-06T02:48:00;101468.38;;;4.98;63.20
59787;BME280;45672;51.612;5.536;2023-04-06T02:50:26;101465.63;;;5.00;63.00
59787;BME280;45672;51.612;5.536;2023-04-06T02:52:52;101469.75;;;5.04;63.24
59787;BME280;45672;51.612;5.536;2023-04-06T02:55:17;101467.13;;;5.04;63.98
59787;BME280;45672;51.612;5.536;2023-04-06T02:57:44;101462.78;;;5.03;64.34
59787;BME280;45672;51.612;5.536;2023-04-06T03:00:10;101453.22;;;5.02;64.19
59787;BME280;45672;51.612;5.536;2023-04-06T03:02:35;101454.25;;;4.99;63.99
59787;BME280;45672;51.612;5.536;2023-04-06T03:05:01;101459.44;;;5.01;63.07
59787;BME280;45672;51.612;5.536;2023-04-06T03:07:28;101456.78;;;5.01;63.43
59787;BME280;45672;51.612;5.536;2023-04-06T03:09:53;101453.22;;;5.02;64.00
59787;BME280;45672;51.612;5.536;2023-04-06T03:12:18;101457.63;;;5.01;62.81
59787;BME280;45672;51.612;5.536;2023-04-06T03:14:44;101454.25;;;4.99;63.86
59787;BME280;45672;51.612;5.536;2023-04-06T03:17:09;101448.22;;;4.97;63.49
59787;BME280;45672;51.612;5.536;2023-04-06T03:19:34;101445.41;;;5.00;63.62
59787;BME280;45672;51.612;5.536;2023-04-06T03:22:00;101432.31;;;4.99;63.61
59787;BME280;45672;51.612;5.536;2023-04-06T03:24:26;101434.84;;;5.00;63.85
59787;BME280;45672;51.612;5.536;2023-04-06T03:26:51;101446.03;;;5.04;65.85
59787;BME280;45672;51.612;5.536;2023-04-06T03:29:16;101441.63;;;5.05;66.19
59787;BME280;45672;51.612;5.536;2023-04-06T03:31:41;101441.50;;;5.06;66.36
59787;BME280;45672;51.612;5.536;2023-04-06T03:34:07;101440.63;;;5.06;64.64
59787;BME280;45672;51.612;5.536;2023-04-06T03:36:34;101432.72;;;5.06;65.20
59787;BME280;45672;51.612;5.536;2023-04-06T03:38:59;101438.88;;;5.06;63.74
59787;BME280;45672;51.612;5.536;2023-04-06T03:41:25;101439.06;;;5.03;63.52
59787;BME280;45672;51.612;5.536;2023-04-06T03:43:50;101433.59;;;5.06;64.33
59787;BME280;45672;51.612;5.536;2023-04-06T03:46:15;101428.22;;;5.08;63.45
59787;BME280;45672;51.612;5.536;2023-04-06T03:48:40;101432.50;;;5.09;63.80
59787;BME280;45672;51.612;5.536;2023-04-06T03:51:06;101429.69;;;5.12;64.03
59787;BME280;45672;51.612;5.536;2023-04-06T03:53:31;101425.34;;;5.11;63.66
59787;BME280;45672;51.612;5.536;2023-04-06T03:55:56;101420.19;;;5.09;63.74
59787;BME280;45672;51.612;5.536;2023-04-06T03:58:22;101425.03;;;5.03;63.89
59787;BME280;45672;51.612;5.536;2023-04-06T04:00:47;101426.84;;;5.02;64.65
59787;BME280;45672;51.612;5.536;2023-04-06T04:03:12;101433.06;;;5.01;64.45
59787;BME280;45672;51.612;5.536;2023-04-06T04:05:38;101434.84;;;5.00;64.34
59787;BME280;45672;51.612;5.536;2023-04-06T04:08:03;101427.13;;;4.97;65.31
59787;BME280;45672;51.612;5.536;2023-04-06T04:10:28;101435.25;;;4.94;65.64
59787;BME280;45672;51.612;5.536;2023-04-06T04:12:54;101414.69;;;4.87;65.68
59787;BME280;45672;51.612;5.536;2023-04-06T04:15:19;101429.47;;;4.89;65.02
59787;BME280;45672;51.612;5.536;2023-04-06T04:17:44;101435.69;;;4.88;67.10
59787;BME280;45672;51.612;5.536;2023-04-06T04:20:14;101439.03;;;4.90;68.61
59787;BME280;45672;51.612;5.536;2023-04-06T04:22:40;101428.50;;;4.90;66.26
59787;BME280;45672;51.612;5.536;2023-04-06T04:25:05;101431.22;;;4.89;65.68
59787;BME280;45672;51.612;5.536;2023-04-06T04:27:31;101428.72;;;4.87;64.96
59787;BME280;45672;51.612;5.536;2023-04-06T04:29:56;101430.50;;;4.87;66.13
59787;BME280;45672;51.612;5.536;2023-04-06T04:32:21;101423.44;;;4.87;65.26
59787;BME280;45672;51.612;5.536;2023-04-06T04:34:47;101430.50;;;4.87;66.34
59787;BME280;45672;51.612;5.536;2023-04-06T04:37:12;101427.75;;;4.88;67.92
59787;BME280;45672;51.612;5.536;2023-04-06T04:39:37;101427.75;;;4.88;66.19
59787;BME280;45672;51.612;5.536;2023-04-06T04:42:03;101421.75;;;4.86;65.37
59787;BME280;45672;51.612;5.536;2023-04-06T04:44:28;101426.16;;;4.86;65.68
59787;BME280;45672;51.612;5.536;2023-04-06T04:46:53;101423.44;;;4.87;67.56
59787;BME280;45672;51.612;5.536;2023-04-06T04:49:18;101417.31;;;4.87;67.22
59787;BME280;45672;51.612;5.536;2023-04-06T04:51:44;101421.00;;;4.84;67.02
59787;BME280;45672;51.612;5.536;2023-04-06T04:54:09;101415.84;;;4.82;67.08
59787;BME280;45672;51.612;5.536;2023-04-06T04:56:34;101413.31;;;4.81;67.75
59787;BME280;45672;51.612;5.536;2023-04-06T04:59:00;101421.53;;;4.76;65.55
59787;BME280;45672;51.612;5.536;2023-04-06T05:01:25;101413.31;;;4.81;67.27
59787;BME280;45672;51.612;5.536;2023-04-06T05:03:50;101420.28;;;4.82;66.07
59787;BME280;45672;51.612;5.536;2023-04-06T05:06:16;101419.41;;;4.81;65.94
59787;BME280;45672;51.612;5.536;2023-04-06T05:08:41;101414.91;;;4.83;65.03
59787;BME280;45672;51.612;5.536;2023-04-06T05:11:07;101427.97;;;4.85;66.12
59787;BME280;45672;51.612;5.536;2023-04-06T05:13:32;101420.06;;;4.85;65.52
59787;BME280;45672;51.612;5.536;2023-04-06T05:15:58;101411.28;;;4.84;66.73
59787;BME280;45672;51.612;5.536;2023-04-06T05:18:23;101416.50;;;4.86;66.00
59787;BME280;45672;51.612;5.536;2023-04-06T05:20:48;101423.53;;;4.86;66.08
59787;BME280;45672;51.612;5.536;2023-04-06T05:23:14;101420.19;;;4.83;66.83
59787;BME280;45672;51.612;5.536;2023-04-06T05:25:40;101409.53;;;4.85;65.78
59787;BME280;45672;51.612;5.536;2023-04-06T05:28:05;101419.97;;;4.87;65.19
59787;BME280;45672;51.612;5.536;2023-04-06T05:30:31;101407.59;;;4.87;65.30
59787;BME280;45672;51.612;5.536;2023-04-06T05:32:56;101410.13;;;4.89;65.83
59787;BME280;45672;51.612;5.536;2023-04-06T05:35:21;101410.03;;;4.90;65.79
59787;BME280;45672;51.612;5.536;2023-04-06T05:37:47;101417.94;;;4.90;65.87
59787;BME280;45672;51.612;5.536;2023-04-06T05:40:12;101414.38;;;4.91;66.03
59787;BME280;45672;51.612;5.536;2023-04-06T05:45:04;101409.19;;;4.90;67.16
59787;BME280;45672;51.612;5.536;2023-04-06T05:47:30;101403.81;;;4.91;66.11
59787;BME280;45672;51.612;5.536;2023-04-06T05:49:55;101398.44;;;4.93;65.67
59787;BME280;45672;51.612;5.536;2023-04-06T05:52:21;101395.59;;;4.96;66.77
59787;BME280;45672;51.612;5.536;2023-04-06T05:54:46;101398.75;;;5.01;66.81
59787;BME280;45672;51.612;5.536;2023-04-06T05:57:11;101401.06;;;5.06;66.93
59787;BME280;45672;51.612;5.536;2023-04-06T05:59:36;101394.97;;;5.05;67.46
59787;BME280;45672;51.612;5.536;2023-04-06T06:02:02;101404.97;;;5.13;66.30
59787;BME280;45672;51.612;5.536;2023-04-06T06:04:27;101405.53;;;5.18;65.77
59787;BME280;45672;51.612;5.536;2023-04-06T06:06:52;101398.44;;;5.18;66.28
59787;BME280;45672;51.612;5.536;2023-04-06T06:09:17;101407.22;;;5.32;67.69
59787;BME280;45672;51.612;5.536;2023-04-06T06:11:43;101404.00;;;5.40;66.73
59787;BME280;45672;51.612;5.536;2023-04-06T06:14:08;101406.75;;;5.51;65.58
59787;BME280;45672;51.612;5.536;2023-04-06T06:16:33;101408.00;;;5.58;65.21
59787;BME280;45672;51.612;5.536;2023-04-06T06:18:59;101405.13;;;5.61;65.78
59787;BME280;45672;51.612;5.536;2023-04-06T06:21:24;101400.16;;;5.69;67.06
59787;BME280;45672;51.612;5.536;2023-04-06T06:23:50;101401.41;;;5.77;64.45
59787;BME280;45672;51.612;5.536;2023-04-06T06:26:16;101401.00;;;5.83;64.53
59787;BME280;45672;51.612;5.536;2023-04-06T06:28:41;101403.28;;;5.87;64.06
59787;BME280;45672;51.612;5.536;2023-04-06T06:31:07;101413.84;;;5.87;64.86
59787;BME280;45672;51.612;5.536;2023-04-06T06:33:32;101411.75;;;5.93;65.01
59787;BME280;45672;51.612;5.536;2023-04-06T06:35:58;101413.84;;;6.00;65.54
59787;BME280;45672;51.612;5.536;2023-04-06T06:38:23;101417.72;;;6.08;64.87
59787;BME280;45672;51.612;5.536;2023-04-06T06:40:48;101417.78;;;6.19;64.29
59787;BME280;45672;51.612;5.536;2023-04-06T06:43:13;101412.28;;;6.22;64.09
59787;BME280;45672;51.612;5.536;2023-04-06T06:45:39;101405.28;;;6.21;64.22
59787;BME280;45672;51.612;5.536;2023-04-06T06:48:05;101419.19;;;6.36;64.30
59787;BME280;45672;51.612;5.536;2023-04-06T06:50:30;101420.66;;;6.40;64.22
59787;BME280;45672;51.612;5.536;2023-04-06T06:52:56;101418.41;;;6.47;64.27
59787;BME280;45672;51.612;5.536;2023-04-06T06:55:21;101408.53;;;6.49;63.08
59787;BME280;45672;51.612;5.536;2023-04-06T06:57:46;101408.31;;;6.52;63.75
59787;BME280;45672;51.612;5.536;2023-04-06T07:00:12;101411.47;;;6.57;63.04
59787;BME280;45672;51.612;5.536;2023-04-06T07:02:38;101409.66;;;6.58;63.07
59787;BME280;45672;51.612;5.536;2023-04-06T07:05:04;101407.13;;;6.56;62.97
59787;BME280;45672;51.612;5.536;2023-04-06T07:07:31;101400.25;;;6.53;62.30
59787;BME280;45672;51.612;5.536;2023-04-06T07:09:57;101399.06;;;6.58;62.30
59787;BME280;45672;51.612;5.536;2023-04-06T07:12:22;101400.41;;;6.63;62.38
59787;BME280;45672;51.612;5.536;2023-04-06T07:14:47;101390.59;;;6.65;61.24
59787;BME280;45672;51.612;5.536;2023-04-06T07:17:13;101402.94;;;6.65;61.32
59787;BME280;45672;51.612;5.536;2023-04-06T07:19:38;101400.28;;;6.65;60.92
59787;BME280;45672;51.612;5.536;2023-04-06T07:22:04;101397.28;;;6.69;61.67
59787;BME280;45672;51.612;5.536;2023-04-06T07:24:29;101387.69;;;6.68;61.50
59787;BME280;45672;51.612;5.536;2023-04-06T07:26:55;101397.53;;;6.66;61.94
59787;BME280;45672;51.612;5.536;2023-04-06T07:29:21;101389.47;;;6.68;61.41
59787;BME280;45672;51.612;5.536;2023-04-06T07:31:48;101399.38;;;6.77;62.32
59787;BME280;45672;51.612;5.536;2023-04-06T07:34:14;101383.28;;;6.80;60.48
59787;BME280;45672;51.612;5.536;2023-04-06T07:36:39;101394.22;;;6.76;60.78
59787;BME280;45672;51.612;5.536;2023-04-06T07:39:04;101386.16;;;6.77;61.52
59787;BME280;45672;51.612;5.536;2023-04-06T07:41:30;101392.16;;;6.79;62.06
59787;BME280;45672;51.612;5.536;2023-04-06T07:43:55;101384.22;;;6.79;61.08
59787;BME280;45672;51.612;5.536;2023-04-06T07:46:20;101381.25;;;6.84;61.02
59787;BME280;45672;51.612;5.536;2023-04-06T07:48:45;101387.75;;;6.91;60.43
59787;BME280;45672;51.612;5.536;2023-04-06T07:51:11;101385.13;;;7.02;61.33
59787;BME280;45672;51.612;5.536;2023-04-06T07:53:39;101387.41;;;7.07;60.34
59787;BME280;45672;51.612;5.536;2023-04-06T07:56:05;101390.16;;;7.05;60.71
59787;BME280;45672;51.612;5.536;2023-04-06T07:58:30;101390.56;;;7.12;61.05
59787;BME280;45672;51.612;5.536;2023-04-06T08:00:55;101391.50;;;7.22;61.14
59787;BME280;45672;51.612;5.536;2023-04-06T08:03:22;101392.84;;;7.28;60.62
59787;BME280;45672;51.612;5.536;2023-04-06T08:05:51;101388.88;;;7.34;60.67
59787;BME280;45672;51.612;5.536;2023-04-06T08:08:16;101394.16;;;7.34;59.89
59787;BME280;45672;51.612;5.536;2023-04-06T08:10:42;101383.91;;;7.40;60.35
59787;BME280;45672;51.612;5.536;2023-04-06T08:13:10;101387.28;;;7.42;59.08
59787;BME280;45672;51.612;5.536;2023-04-06T08:15:35;101391.63;;;7.44;59.63
59787;BME280;45672;51.612;5.536;2023-04-06T08:18:00;101386.69;;;7.50;59.78
59787;BME280;45672;51.612;5.536;2023-04-06T08:20:26;101386.34;;;7.55;59.05
59787;BME280;45672;51.612;5.536;2023-04-06T08:22:51;101393.06;;;7.59;58.50
59787;BME280;45672;51.612;5.536;2023-04-06T08:25:16;101391.38;;;7.58;58.80
59787;BME280;45672;51.612;5.536;2023-04-06T08:27:41;101391.75;;;7.65;59.22
59787;BME280;45672;51.612;5.536;2023-04-06T08:30:07;101395.59;;;7.61;58.91
59787;BME280;45672;51.612;5.536;2023-04-06T08:32:32;101401.72;;;7.61;58.50
59787;BME280;45672;51.612;5.536;2023-04-06T08:34:57;101400.16;;;7.58;58.37
59787;BME280;45672;51.612;5.536;2023-04-06T08:37:23;101393.78;;;7.61;58.67
59787;BME280;45672;51.612;5.536;2023-04-06T08:39:48;101391.63;;;7.66;58.61
59787;BME280;45672;51.612;5.536;2023-04-06T08:42:19;101404.72;;;7.79;58.53
59787;BME280;45672;51.612;5.536;2023-04-06T08:44:44;101398.66;;;7.88;57.89
59787;BME280;45672;51.612;5.536;2023-04-06T08:47:11;101402.84;;;8.02;58.51
59787;BME280;45672;51.612;5.536;2023-04-06T08:49:37;101396.59;;;8.03;57.10
59787;BME280;45672;51.612;5.536;2023-04-06T08:52:06;101387.78;;;8.03;56.99
59787;BME280;45672;51.612;5.536;2023-04-06T08:54:33;101393.69;;;8.06;57.57
59787;BME280;45672;51.612;5.536;2023-04-06T08:56:58;101393.19;;;8.13;57.32
59787;BME280;45672;51.612;5.536;2023-04-06T08:59:25;101400.66;;;8.19;57.42
59787;BME280;45672;51.612;5.536;2023-04-06T09:01:51;101395.66;;;8.25;57.80
59787;BME280;45672;51.612;5.536;2023-04-06T09:04:16;101401.53;;;8.40;58.08
59787;BME280;45672;51.612;5.536;2023-04-06T09:06:42;101398.84;;;8.52;57.70
59787;BME280;45672;51.612;5.536;2023-04-06T09:09:08;101403.25;;;8.62;57.42
59787;BME280;45672;51.612;5.536;2023-04-06T09:14:09;101404.22;;;8.83;58.10
59787;BME280;45672;51.612;5.536;2023-04-06T09:16:45;101412.19;;;8.83;57.57
59787;BME280;45672;51.612;5.536;2023-04-06T09:19:11;101397.03;;;8.94;57.27
59787;BME280;45672;51.612;5.536;2023-04-06T09:21:38;101401.13;;;8.99;57.02
59787;BME280;45672;51.612;5.536;2023-04-06T09:24:07;101403.19;;;8.95;56.97
59787;BME280;45672;51.612;5.536;2023-04-06T09:26:32;101411.22;;;9.05;57.30
59787;BME280;45672;51.612;5.536;2023-04-06T09:29:08;101397.53;;;9.09;56.98
59787;BME280;45672;51.612;5.536;2023-04-06T09:31:34;101404.44;;;9.22;58.88
59787;BME280;45672;51.612;5.536;2023-04-06T09:34:00;101405.59;;;9.29;57.70
59787;BME280;45672;51.612;5.536;2023-04-06T09:36:36;101405.78;;;9.37;58.45
59787;BME280;45672;51.612;5.536;2023-04-06T09:39:06;101405.09;;;9.45;58.70
59787;BME280;45672;51.612;5.536;2023-04-06T09:41:34;101394.66;;;9.53;59.48
59787;BME280;45672;51.612;5.536;2023-04-06T09:44:07;101395.78;;;9.60;60.02
59787;BME280;45672;51.612;5.536;2023-04-06T09:46:41;101393.03;;;9.72;60.35
59787;BME280;45672;51.612;5.536;2023-04-06T09:49:07;101399.63;;;9.77;61.16
59787;BME280;45672;51.612;5.536;2023-04-06T09:51:38;101404.50;;;9.82;61.84
59787;BME280;45672;51.612;5.536;2023-04-06T09:54:04;101396.94;;;9.68;60.76
59787;BME280;45672;51.612;5.536;2023-04-06T09:56:45;101401.69;;;9.64;61.77
59787;BME280;45672;51.612;5.536;2023-04-06T09:59:30;101398.72;;;9.57;63.14
59787;BME280;45672;51.612;5.536;2023-04-06T10:01:58;101399.88;;;9.64;65.02
59787;BME280;45672;51.612;5.536;2023-04-06T10:04:43;101408.94;;;9.62;65.42
59787;BME280;45672;51.612;5.536;2023-04-06T10:07:09;101408.22;;;9.50;67.91
59787;BME280;45672;51.612;5.536;2023-04-06T10:09:37;101406.19;;;9.32;68.80
59787;BME280;45672;51.612;5.536;2023-04-06T10:12:04;101402.94;;;9.29;69.54
59787;BME280;45672;51.612;5.536;2023-04-06T10:14:32;101414.44;;;9.39;70.01
59787;BME280;45672;51.612;5.536;2023-04-06T10:16:58;101415.16;;;9.41;70.32
59787;BME280;45672;51.612;5.536;2023-04-06T10:19:27;101413.69;;;9.27;70.29
59787;BME280;45672;51.612;5.536;2023-04-06T10:21:55;101408.22;;;8.98;71.20
59787;BME280;45672;51.612;5.536;2023-04-06T10:24:22;101399.25;;;8.89;75.28
59787;BME280;45672;51.612;5.536;2023-04-06T10:26:58;101407.41;;;8.97;77.53
59787;BME280;45672;51.612;5.536;2023-04-06T10:29:23;101419.72;;;8.99;76.88
59787;BME280;45672;51.612;5.536;2023-04-06T10:31:49;101414.97;;;8.81;77.88
59787;BME280;45672;51.612;5.536;2023-04-06T10:34:14;101415.50;;;8.75;81.35
59787;BME280;45672;51.612;5.536;2023-04-06T10:36:40;101422.97;;;8.70;79.02
59787;BME280;45672;51.612;5.536;2023-04-06T10:39:06;101417.06;;;8.77;80.42
59787;BME280;45672;51.612;5.536;2023-04-06T10:41:36;101414.66;;;8.74;79.93
59787;BME280;45672;51.612;5.536;2023-04-06T10:44:02;101415.41;;;8.65;81.33
59787;BME280;45672;51.612;5.536;2023-04-06T10:46:32;101406.03;;;8.61;81.54
59787;BME280;45672;51.612;5.536;2023-04-06T10:48:58;101411.34;;;8.61;80.67
59787;BME280;45672;51.612;5.536;2023-04-06T10:51:28;101410.50;;;8.60;81.13
59787;BME280;45672;51.612;5.536;2023-04-06T10:53:54;101410.16;;;8.54;84.22
59787;BME280;45672;51.612;5.536;2023-04-06T10:56:22;101405.75;;;8.43;85.60
59787;BME280;45672;51.612;5.536;2023-04-06T10:58:51;101407.91;;;8.38;87.59
59787;BME280;45672;51.612;5.536;2023-04-06T11:01:18;101403.25;;;8.30;87.01
59787;BME280;45672;51.612;5.536;2023-04-06T11:03:44;101401.81;;;8.26;87.89
59787;BME280;45672;51.612;5.536;2023-04-06T11:06:10;101398.59;;;8.11;88.33
59787;BME280;45672;51.612;5.536;2023-04-06T11:08:36;101402.22;;;8.10;90.61
59787;BME280;45672;51.612;5.536;2023-04-06T11:13:42;101401.44;;;7.87;91.53
59787;BME280;45672;51.612;5.536;2023-04-06T11:16:23;101397.72;;;7.78;90.81
59787;BME280;45672;51.612;5.536;2023-04-06T11:21:15;101385.22;;;7.57;95.33
59787;BME280;45672;51.612;5.536;2023-04-06T11:23:40;101397.38;;;7.49;96.21
59787;BME280;45672;51.612;5.536;2023-04-06T11:26:13;101385.47;;;7.43;98.18
59787;BME280;45672;51.612;5.536;2023-04-06T11:28:41;101382.72;;;7.45;98.40
59787;BME280;45672;51.612;5.536;2023-04-06T11:31:09;101372.47;;;7.51;100.00
59787;BME280;45672;51.612;5.536;2023-04-06T11:33:38;101369.25;;;7.48;98.62
59787;BME280;45672;51.612;5.536;2023-04-06T11:36:04;101374.53;;;7.59;99.03
59787;BME280;45672;51.612;5.536;2023-04-06T11:38:30;101379.59;;;7.62;97.65
59787;BME280;45672;51.612;5.536;2023-04-06T11:40:56;101382.94;;;7.53;98.99
59787;BME280;45672;51.612;5.536;2023-04-06T11:43:29;101377.66;;;7.41;99.44
59787;BME280;45672;51.612;5.536;2023-04-06T11:46:03;101371.41;;;7.31;100.00
59787;BME280;45672;51.612;5.536;2023-04-06T11:48:29;101362.03;;;7.27;100.00
59787;BME280;45672;51.612;5.536;2023-04-06T11:50:59;101359.50;;;7.25;100.00
59787;BME280;45672;51.612;5.536;2023-04-06T11:53:30;101358.44;;;7.28;99.39
59787;BME280;45672;51.612;5.536;2023-04-06T11:55:56;101354.56;;;7.10;98.63
59787;BME280;45672;51.612;5.536;2023-04-06T11:58:22;101350.47;;;7.05;98.97
59787;BME280;45672;51.612;5.536;2023-04-06T12:00:47;101351.66;;;6.90;100.00
59787;BME280;45672;51.612;5.536;2023-04-06T12:03:13;101344.44;;;7.03;100.00
59787;BME280;45672;51.612;5.536;2023-04-06T12:05:39;101333.16;;;7.13;100.00
59787;BME280;45672;51.612;5.536;2023-04-06T12:08:04;101347.97;;;7.27;100.00
59787;BME280;45672;51.612;5.536;2023-04-06T12:10:30;101343.50;;;7.27;100.00
59787;BME280;45672;51.612;5.536;2023-04-06T12:12:55;101341.34;;;7.32;100.00
59787;BME280;45672;51.612;5.536;2023-04-06T12:15:20;101342.16;;;7.33;100.00
59787;BME280;45672;51.612;5.536;2023-04-06T12:17:46;101332.53;;;7.43;100.00
59787;BME280;45672;51.612;5.536;2023-04-06T12:20:12;101342.53;;;7.39;100.00
59787;BME280;45672;51.612;5.536;2023-04-06T12:22:38;101334.34;;;7.42;100.00
59787;BME280;45672;51.612;5.536;2023-04-06T12:25:04;101344.44;;;7.49;100.00
59787;BME280;45672;51.612;5.536;2023-04-06T12:27:29;101339.63;;;7.54;100.00
59787;BME280;45672;51.612;5.536;2023-04-06T12:29:54;101332.38;;;7.67;100.00
59787;BME280;45672;51.612;5.536;2023-04-06T12:32:20;101332.59;;;7.75;100.00
59787;BME280;45672;51.612;5.536;2023-04-06T12:34:45;101333.56;;;7.63;100.00
59787;BME280;45672;51.612;5.536;2023-04-06T12:37:11;101334.44;;;7.52;100.00
59787;BME280;45672;51.612;5.536;2023-04-06T12:39:36;101326.97;;;7.46;100.00
59787;BME280;45672;51.612;5.536;2023-04-06T12:42:01;101328.00;;;7.22;100.00
59787;BME280;45672;51.612;5.536;2023-04-06T12:44:27;101327.03;;;7.12;100.00
59787;BME280;45672;51.612;5.536;2023-04-06T12:46:53;101328.34;;;6.95;100.00
59787;BME280;45672;51.612;5.536;2023-04-06T12:49:18;101323.19;;;6.94;100.00
59787;BME280;45672;51.612;5.536;2023-04-06T12:51:44;101336.50;;;6.92;100.00
59787;BME280;45672;51.612;5.536;2023-04-06T12:54:10;101323.66;;;6.87;100.00
59787;BME280;45672;51.612;5.536;2023-04-06T12:56:37;101315.97;;;7.07;100.00
59787;BME280;45672;51.612;5.536;2023-04-06T12:59:02;101320.16;;;7.21;100.00
59787;BME280;45672;51.612;5.536;2023-04-06T13:01:27;101319.09;;;7.35;100.00
59787;BME280;45672;51.612;5.536;2023-04-06T13:03:53;101310.13;;;7.47;100.00